Time;durP1;ratioP1;P1;durP2;ratioP2;P2;SDS_P1;SDS_P2;PMS_P1;PMS_P2;Temp;Humidity;BMP_temperature;BMP_pressure;BME280_temperature;BME280_humidity;BME280_pressure;Samples;Min_cycle;Max_cycle;Signal;HPM_P1;HPM_P2
2021/03/07 00:02:22;;;;;;;8.48;7.72;;;3.90;99.90;;;;;;4959261;28;20675;-76
2021/03/07 00:04:48;;;;;;;8.35;7.55;;;3.90;99.90;;;;;;4960392;28;20225;-76
2021/03/07 00:07:15;;;;;;;9.93;8.35;;;3.90;99.90;;;;;;4954964;28;20293;-76
2021/03/07 00:09:42;;;;;;;8.70;7.90;;;3.90;99.90;;;;;;4955044;28;20221;-76
2021/03/07 00:12:09;;;;;;;8.75;7.85;;;3.90;99.90;;;;;;4959545;28;20233;-77
2021/03/07 00:14:36;;;;;;;8.63;7.85;;;3.80;99.90;;;;;;4958385;28;20221;-77
2021/03/07 00:17:03;;;;;;;8.63;7.82;;;3.90;99.90;;;;;;4965515;28;20225;-76
2021/03/07 00:19:30;;;;;;;8.93;8.15;;;3.80;99.90;;;;;;4960189;28;20216;-76
2021/03/07 00:21:56;;;;;;;10.60;8.75;;;3.80;99.90;;;;;;4963615;28;20232;-76
2021/03/07 00:24:23;;;;;;;8.98;8.13;;;3.80;99.90;;;;;;4968922;28;20263;-76
2021/03/07 00:26:49;;;;;;;9.35;8.52;;;3.80;99.90;;;;;;4966255;28;20225;-77
2021/03/07 00:29:16;;;;;;;9.88;8.88;;;3.80;99.90;;;;;;4967246;28;20694;-76
2021/03/07 00:31:43;;;;;;;9.45;8.55;;;3.80;99.90;;;;;;4968273;28;20233;-76
2021/03/07 00:34:10;;;;;;;9.40;8.18;;;3.80;99.90;;;;;;4968795;28;20225;-76
2021/03/07 00:36:36;;;;;;;9.35;8.48;;;3.80;99.90;;;;;;4970565;28;20227;-76
2021/03/07 00:39:04;;;;;;;9.68;8.77;;;3.80;99.90;;;;;;4967140;28;20233;-76
2021/03/07 00:41:31;;;;;;;8.52;7.82;;;3.80;99.90;;;;;;4967089;28;20267;-76
2021/03/07 00:43:57;;;;;;;8.73;7.90;;;3.90;99.90;;;;;;4965425;28;20229;-76
2021/03/07 00:46:24;;;;;;;9.18;8.30;;;4.00;99.90;;;;;;4966018;28;20248;-76
2021/03/07 00:48:52;;;;;;;8.10;7.40;;;4.00;99.90;;;;;;4963777;28;20699;-76
2021/03/07 00:51:18;;;;;;;7.80;7.00;;;4.10;99.90;;;;;;4964743;28;20357;-76
2021/03/07 00:53:45;;;;;;;8.30;7.22;;;4.10;99.90;;;;;;4963851;28;20228;-76
2021/03/07 00:56:12;;;;;;;7.40;6.80;;;4.10;99.90;;;;;;4966262;28;20470;-76
2021/03/07 00:58:38;;;;;;;7.22;6.63;;;4.00;99.90;;;;;;4963904;28;20594;-77
2021/03/07 01:01:05;;;;;;;7.95;7.18;;;4.10;99.90;;;;;;4962883;28;20225;-76
2021/03/07 01:03:31;;;;;;;9.07;7.57;;;4.10;99.90;;;;;;4959282;28;20241;-76
2021/03/07 01:05:59;;;;;;;8.45;7.57;;;4.10;99.90;;;;;;4963854;28;20230;-76
2021/03/07 01:08:25;;;;;;;7.55;6.85;;;4.00;99.90;;;;;;4964295;28;20731;-76
2021/03/07 01:10:52;;;;;;;7.75;7.15;;;4.10;99.90;;;;;;4961981;28;20229;-76
2021/03/07 01:13:20;;;;;;;8.18;7.47;;;4.10;99.90;;;;;;4962947;28;20232;-76
2021/03/07 01:15:46;;;;;;;7.25;6.65;;;4.10;99.90;;;;;;4965859;28;20241;-77
2021/03/07 01:18:13;;;;;;;8.85;7.75;;;4.20;99.90;;;;;;4963947;28;20225;-77
2021/03/07 01:20:42;;;;;;;7.47;6.68;;;4.20;99.90;;;;;;4962241;28;20225;-76
2021/03/07 01:23:13;;;;;;;8.20;7.50;;;4.20;99.90;;;;;;4965021;28;20221;-77
2021/03/07 01:25:40;;;;;;;7.68;6.93;;;4.20;99.90;;;;;;4962748;28;20230;-76
2021/03/07 01:28:07;;;;;;;7.68;7.00;;;4.20;99.90;;;;;;4965433;28;20568;-76
2021/03/07 01:30:35;;;;;;;7.50;6.80;;;4.10;99.90;;;;;;4960421;28;20284;-77
2021/03/07 01:33:02;;;;;;;7.22;6.57;;;4.10;99.90;;;;;;4964203;28;20233;-76
2021/03/07 01:35:29;;;;;;;7.97;7.20;;;4.10;99.90;;;;;;4956653;28;20629;-76
2021/03/07 01:37:55;;;;;;;7.72;7.10;;;4.00;99.90;;;;;;4959107;28;20234;-76
2021/03/07 01:40:29;;;;;;;7.97;7.28;;;3.90;99.90;;;;;;4957634;28;20226;-76
2021/03/07 01:42:59;;;;;;;6.78;6.18;;;3.90;99.90;;;;;;4966069;28;20233;-77
2021/03/07 01:45:27;;;;;;;6.80;6.20;;;3.80;99.90;;;;;;4962551;28;20733;-77
2021/03/07 01:47:55;;;;;;;7.10;6.40;;;3.80;99.90;;;;;;4964026;28;20966;-76
2021/03/07 01:50:24;;;;;;;6.63;6.13;;;3.80;99.90;;;;;;4958090;28;20217;-76
2021/03/07 01:52:51;;;;;;;6.70;6.10;;;3.80;99.90;;;;;;4962111;28;20730;-76
2021/03/07 01:55:19;;;;;;;7.55;6.85;;;3.70;99.90;;;;;;4960721;28;20217;-77
2021/03/07 01:57:48;;;;;;;7.43;6.82;;;3.70;99.90;;;;;;4961610;28;20217;-78
2021/03/07 02:00:16;;;;;;;6.97;6.38;;;3.70;99.90;;;;;;4956972;28;20230;-76
2021/03/07 02:02:43;;;;;;;7.32;6.70;;;3.60;99.90;;;;;;4962074;28;20244;-76
2021/03/07 02:05:12;;;;;;;7.65;6.97;;;3.50;99.90;;;;;;4958877;28;20221;-77
2021/03/07 02:07:40;;;;;;;7.32;6.72;;;3.40;99.90;;;;;;4961983;28;20386;-76
2021/03/07 02:10:09;;;;;;;7.30;6.60;;;3.30;99.90;;;;;;4959681;28;20280;-77
2021/03/07 02:12:37;;;;;;;7.55;6.95;;;3.30;99.90;;;;;;4960411;28;20618;-76
2021/03/07 02:15:09;;;;;;;7.30;6.70;;;3.30;99.90;;;;;;4961429;28;20230;-76
2021/03/07 02:17:36;;;;;;;7.63;6.93;;;3.30;99.90;;;;;;4962685;28;20226;-77
2021/03/07 02:20:03;;;;;;;7.88;7.13;;;3.30;99.90;;;;;;4958484;28;20240;-76
2021/03/07 02:22:35;;;;;;;7.47;6.88;;;3.30;99.90;;;;;;4960595;28;20637;-77
2021/03/07 02:25:05;;;;;;;7.00;6.40;;;3.40;99.90;;;;;;4958777;28;20256;-77
2021/03/07 02:27:32;;;;;;;7.30;6.70;;;3.50;99.90;;;;;;4961320;28;20229;-76
2021/03/07 02:29:58;;;;;;;7.53;6.82;;;3.50;99.90;;;;;;4959223;28;20646;-77
2021/03/07 02:32:27;;;;;;;7.55;6.95;;;3.50;99.90;;;;;;4961335;28;20730;-76
2021/03/07 02:34:58;;;;;;;7.95;7.25;;;3.50;99.90;;;;;;4960708;28;20225;-76
2021/03/07 02:37:26;;;;;;;7.95;7.15;;;3.50;99.90;;;;;;4961729;28;20598;-76
2021/03/07 02:39:53;;;;;;;7.60;6.90;;;3.50;99.90;;;;;;4960990;28;20241;-76
2021/03/07 02:42:23;;;;;;;8.70;7.90;;;3.40;99.90;;;;;;4962287;28;20237;-76
2021/03/07 02:44:54;;;;;;;7.72;7.13;;;3.40;99.90;;;;;;4961063;28;20240;-76
2021/03/07 02:47:22;;;;;;;8.07;7.28;;;3.40;99.90;;;;;;4960591;28;20233;-76
2021/03/07 02:49:52;;;;;;;7.40;6.80;;;3.40;99.90;;;;;;4958038;28;20221;-76
2021/03/07 02:52:19;;;;;;;6.85;6.25;;;3.40;99.90;;;;;;4961191;28;20645;-77
2021/03/07 02:54:49;;;;;;;6.88;6.28;;;3.40;99.90;;;;;;4963340;28;20243;-78
2021/03/07 02:57:17;;;;;;;8.48;7.78;;;3.40;99.90;;;;;;4964056;28;20287;-76
2021/03/07 02:59:46;;;;;;;7.65;6.95;;;3.30;99.90;;;;;;4961392;28;20225;-76
2021/03/07 03:02:13;;;;;;;7.70;7.00;;;3.30;99.90;;;;;;4955675;28;20234;-76
2021/03/07 03:04:42;;;;;;;7.45;6.47;;;3.20;99.90;;;;;;4959011;28;20229;-76
2021/03/07 03:07:09;;;;;;;7.65;6.85;;;3.10;99.90;;;;;;4959351;28;20218;-76
2021/03/07 03:09:37;;;;;;;7.32;6.72;;;3.10;99.90;;;;;;4959462;28;20222;-77
2021/03/07 03:12:05;;;;;;;7.82;7.13;;;3.10;99.90;;;;;;4960536;28;20253;-76
2021/03/07 03:14:33;;;;;;;8.35;7.65;;;3.10;99.90;;;;;;4957219;28;20229;-76
2021/03/07 03:17:02;;;;;;;7.45;6.75;;;3.10;99.90;;;;;;4954969;28;20226;-76
2021/03/07 03:19:30;;;;;;;7.50;6.80;;;3.10;99.90;;;;;;4961612;28;20233;-76
2021/03/07 03:21:57;;;;;;;7.68;7.07;;;3.10;99.90;;;;;;4958608;28;20638;-76
2021/03/07 03:24:24;;;;;;;7.82;7.13;;;3.10;99.90;;;;;;4954149;28;20233;-77
2021/03/07 03:27:01;;;;;;;7.43;6.80;;;3.10;99.90;;;;;;4960947;28;20234;-76
2021/03/07 03:29:28;;;;;;;7.40;6.80;;;3.00;99.90;;;;;;4955357;28;20297;-77
2021/03/07 03:31:55;;;;;;;8.70;7.90;;;3.00;99.90;;;;;;4956602;28;20226;-76
2021/03/07 03:34:23;;;;;;;7.45;6.80;;;3.00;99.90;;;;;;4955893;28;20237;-76
2021/03/07 03:36:50;;;;;;;8.15;7.45;;;3.00;99.90;;;;;;4961176;28;20225;-75
2021/03/07 03:39:18;;;;;;;7.68;6.97;;;3.00;99.90;;;;;;4958999;28;20221;-76
2021/03/07 03:41:50;;;;;;;8.73;7.88;;;2.90;99.90;;;;;;4962765;28;20232;-76
2021/03/07 03:44:21;;;;;;;8.05;7.38;;;2.90;99.90;;;;;;4963820;28;20300;-76
2021/03/07 03:46:50;;;;;;;8.43;7.57;;;2.90;99.90;;;;;;4963449;28;20232;-76
2021/03/07 03:49:24;;;;;;;7.65;7.03;;;2.80;99.90;;;;;;4962889;28;20229;-75
2021/03/07 03:51:57;;;;;;;8.68;7.82;;;2.90;99.90;;;;;;4965944;28;20216;-76
2021/03/07 03:54:24;;;;;;;8.70;7.90;;;2.90;99.90;;;;;;4961174;28;20582;-76
2021/03/07 03:56:52;;;;;;;7.95;7.28;;;2.90;99.90;;;;;;4960133;28;21373;-76
2021/03/07 03:59:20;;;;;;;8.20;7.50;;;2.90;99.90;;;;;;4957857;28;20284;-77
2021/03/07 04:01:48;;;;;;;8.30;7.60;;;2.80;99.90;;;;;;4960123;28;20532;-76
2021/03/07 04:04:15;;;;;;;7.75;7.00;;;2.80;99.90;;;;;;4961149;28;20230;-77
2021/03/07 04:06:45;;;;;;;8.40;7.60;;;2.90;99.90;;;;;;4954824;28;20236;-76
2021/03/07 04:09:12;;;;;;;8.68;7.97;;;2.80;99.90;;;;;;4961751;28;20240;-76
2021/03/07 04:11:39;;;;;;;7.70;7.00;;;2.80;99.90;;;;;;4958130;28;20225;-75
2021/03/07 04:14:07;;;;;;;7.82;7.15;;;2.80;99.90;;;;;;4958932;28;20458;-76
2021/03/07 04:16:34;;;;;;;8.13;7.38;;;2.80;99.90;;;;;;4959359;28;20241;-76
2021/03/07 04:19:02;;;;;;;8.18;7.35;;;2.70;99.90;;;;;;4964840;28;20238;-77
2021/03/07 04:21:29;;;;;;;7.97;7.30;;;2.70;99.90;;;;;;4964814;28;20226;-76
2021/03/07 04:23:56;;;;;;;7.68;6.97;;;2.70;99.90;;;;;;4962061;28;20511;-77
2021/03/07 04:26:23;;;;;;;7.72;7.03;;;2.70;99.90;;;;;;4963866;28;20228;-76
2021/03/07 04:28:50;;;;;;;9.32;8.50;;;2.70;99.90;;;;;;4960867;28;20221;-77
2021/03/07 04:31:17;;;;;;;7.95;7.25;;;2.70;99.90;;;;;;4960630;28;20253;-76
2021/03/07 04:33:44;;;;;;;8.80;7.88;;;2.60;99.90;;;;;;4961816;28;21072;-76
2021/03/07 04:36:11;;;;;;;8.07;7.38;;;2.60;99.90;;;;;;4964084;28;20225;-77
2021/03/07 04:38:38;;;;;;;7.85;7.15;;;2.60;99.90;;;;;;4963587;28;20570;-76
2021/03/07 04:41:05;;;;;;;8.13;7.43;;;2.60;99.90;;;;;;4958107;28;20500;-76
2021/03/07 04:43:47;;;;;;;9.02;8.18;;;2.60;99.90;;;;;;4961423;28;20225;-75
2021/03/07 04:46:13;;;;;;;8.25;7.55;;;2.60;99.90;;;;;;4957261;28;20296;-76
2021/03/07 04:48:40;;;;;;;8.23;7.53;;;2.50;99.90;;;;;;4964083;28;20229;-76
2021/03/07 04:51:07;;;;;;;8.38;7.57;;;2.50;99.90;;;;;;4963542;28;20256;-76
2021/03/07 04:53:33;;;;;;;7.90;7.20;;;2.40;99.90;;;;;;4955634;28;20222;-76
2021/03/07 04:56:00;;;;;;;8.98;8.10;;;2.40;99.90;;;;;;4964051;28;20229;-76
2021/03/07 04:58:27;;;;;;;9.02;8.13;;;2.40;99.90;;;;;;4960699;28;20296;-76
2021/03/07 05:00:54;;;;;;;8.40;7.43;;;2.30;99.90;;;;;;4962547;28;20225;-76
2021/03/07 05:03:21;;;;;;;7.85;7.15;;;2.40;99.90;;;;;;4961900;28;20800;-76
2021/03/07 05:05:48;;;;;;;8.32;7.53;;;2.40;99.90;;;;;;4962969;28;20273;-76
2021/03/07 05:08:15;;;;;;;8.80;7.97;;;2.40;99.90;;;;;;4960085;28;20308;-76
2021/03/07 05:10:42;;;;;;;9.52;8.63;;;2.40;99.90;;;;;;4963054;28;20299;-76
2021/03/07 05:13:08;;;;;;;9.88;8.98;;;2.40;99.90;;;;;;4964627;28;20700;-75
2021/03/07 05:15:36;;;;;;;8.40;7.70;;;2.40;99.90;;;;;;4968112;28;20268;-76
2021/03/07 05:18:03;;;;;;;9.18;8.18;;;2.50;99.90;;;;;;4963309;28;20224;-76
2021/03/07 05:20:29;;;;;;;8.88;8.02;;;2.50;99.90;;;;;;4966302;28;20696;-76
2021/03/07 05:22:56;;;;;;;9.07;8.20;;;2.50;99.90;;;;;;4957956;28;20248;-76
2021/03/07 05:25:22;;;;;;;9.70;8.77;;;2.50;99.90;;;;;;4961848;28;20229;-76
2021/03/07 05:27:49;;;;;;;9.00;8.20;;;2.50;99.90;;;;;;4965110;28;20217;-76
2021/03/07 05:30:16;;;;;;;8.90;8.10;;;2.50;99.90;;;;;;4960285;28;20230;-76
2021/03/07 05:32:44;;;;;;;8.52;7.82;;;2.50;99.90;;;;;;4960788;28;20598;-76
2021/03/07 05:35:11;;;;;;;8.45;7.75;;;2.40;99.90;;;;;;4962640;28;20667;-76
2021/03/07 05:37:38;;;;;;;8.52;7.75;;;2.40;99.90;;;;;;4965121;28;20276;-76
2021/03/07 05:40:06;;;;;;;9.57;8.68;;;2.50;99.90;;;;;;4960436;28;20221;-76
2021/03/07 05:42:34;;;;;;;8.75;7.95;;;2.50;99.90;;;;;;4964570;28;20236;-76
2021/03/07 05:45:01;;;;;;;8.23;7.50;;;2.50;99.90;;;;;;4957885;28;20240;-76
2021/03/07 05:47:28;;;;;;;9.52;8.73;;;2.50;99.90;;;;;;4962280;28;20292;-76
2021/03/07 05:49:55;;;;;;;8.68;7.80;;;2.50;99.90;;;;;;4960997;28;20281;-76
2021/03/07 05:52:23;;;;;;;9.05;8.25;;;2.50;99.90;;;;;;4959453;28;20233;-76
2021/03/07 05:54:52;;;;;;;8.90;8.10;;;2.50;99.90;;;;;;4962839;28;20264;-75
2021/03/07 05:57:21;;;;;;;8.57;7.78;;;2.40;99.90;;;;;;4962720;28;20731;-76
2021/03/07 05:59:49;;;;;;;8.00;7.30;;;2.40;99.90;;;;;;4961564;28;20696;-77
2021/03/07 06:02:16;;;;;;;8.30;7.55;;;2.40;99.90;;;;;;4960540;28;20241;-76
2021/03/07 06:04:43;;;;;;;9.32;8.50;;;2.40;99.90;;;;;;4962857;28;20232;-76
2021/03/07 06:07:10;;;;;;;8.65;7.85;;;2.40;99.90;;;;;;4963556;28;20226;-76
2021/03/07 06:09:37;;;;;;;8.60;7.80;;;2.40;99.90;;;;;;4963304;28;20218;-76
2021/03/07 06:12:15;;;;;;;8.60;7.80;;;2.40;99.90;;;;;;4965734;28;20222;-77
2021/03/07 06:14:43;;;;;;;8.60;7.80;;;2.40;99.90;;;;;;4964805;28;20218;-76
2021/03/07 06:17:11;;;;;;;9.27;8.48;;;2.40;99.90;;;;;;4964315;28;20304;-75
2021/03/07 06:19:55;;;;;;;7.85;7.18;;;2.40;99.90;;;;;;4967092;28;20280;-76
2021/03/07 06:22:23;;;;;;;7.50;6.90;;;2.40;99.90;;;;;;4965159;28;20225;-75
2021/03/07 06:24:50;;;;;;;9.30;8.50;;;2.40;99.90;;;;;;4964467;28;20252;-77
2021/03/07 06:27:18;;;;;;;8.90;8.00;;;2.50;99.90;;;;;;4964875;28;20240;-76
2021/03/07 06:29:59;;;;;;;9.35;7.95;;;2.50;99.90;;;;;;4964587;28;20233;-76
2021/03/07 06:32:28;;;;;;;9.75;8.93;;;2.50;99.90;;;;;;4964339;28;20237;-76
2021/03/07 06:34:55;;;;;;;9.32;8.43;;;2.50;99.90;;;;;;4961103;28;20233;-76
2021/03/07 06:37:23;;;;;;;9.80;8.80;;;2.50;99.90;;;;;;4956956;28;20248;-76
2021/03/07 06:39:51;;;;;;;10.57;9.57;;;2.50;99.90;;;;;;4965751;28;20229;-76
2021/03/07 06:42:18;;;;;;;10.57;9.57;;;2.50;99.90;;;;;;4964720;28;20262;-77
2021/03/07 06:44:59;;;;;;;10.35;9.40;;;2.50;99.90;;;;;;4962271;28;20221;-76
2021/03/07 06:47:27;;;;;;;10.15;9.23;;;2.50;99.90;;;;;;4965874;28;22255;-76
2021/03/07 06:50:11;;;;;;;10.55;9.52;;;2.60;99.90;;;;;;4962470;28;20228;-77
2021/03/07 06:52:50;;;;;;;9.82;8.82;;;2.60;99.90;;;;;;4965684;28;20225;-77
2021/03/07 06:55:18;;;;;;;9.80;8.90;;;2.60;99.90;;;;;;4964454;28;20233;-76
2021/03/07 06:57:45;;;;;;;9.68;8.77;;;2.70;99.90;;;;;;4965422;28;20222;-76
2021/03/07 07:00:13;;;;;;;10.27;9.27;;;2.70;99.90;;;;;;4962328;28;20576;-76
2021/03/07 07:02:39;;;;;;;9.70;8.75;;;2.70;99.90;;;;;;4962484;28;20877;-77
2021/03/07 07:05:07;;;;;;;9.23;8.43;;;2.80;99.90;;;;;;4962560;28;20237;-76
2021/03/07 07:07:34;;;;;;;9.35;8.45;;;2.80;99.90;;;;;;4969602;28;20233;-76
2021/03/07 07:10:04;;;;;;;9.63;8.75;;;2.80;99.90;;;;;;4963347;28;20236;-75
2021/03/07 07:12:30;;;;;;;9.07;8.20;;;2.90;99.90;;;;;;4961694;28;20233;-76
2021/03/07 07:15:07;;;;;;;10.20;9.20;;;3.00;99.90;;;;;;4963405;28;20237;-75
2021/03/07 07:17:34;;;;;;;10.55;9.65;;;3.70;99.90;;;;;;4965869;28;20229;-76
2021/03/07 07:20:00;;;;;;;10.50;9.50;;;4.30;99.90;;;;;;4962557;28;20261;-76
2021/03/07 07:22:27;;;;;;;10.30;8.80;;;4.80;99.90;;;;;;4962392;28;20226;-77
2021/03/07 07:24:54;;;;;;;10.80;9.70;;;5.10;99.90;;;;;;4966311;28;20237;-77
2021/03/07 07:27:22;;;;;;;10.18;9.27;;;5.20;99.90;;;;;;4965182;28;20241;-75
2021/03/07 07:29:49;;;;;;;9.80;8.80;;;5.60;99.90;;;;;;4962982;28;20222;-76
2021/03/07 07:32:22;;;;;;;9.70;8.88;;;6.10;99.90;;;;;;4961028;28;20229;-76
2021/03/07 07:34:51;;;;;;;10.85;9.75;;;6.70;99.90;;;;;;4963617;28;20236;-76
2021/03/07 07:37:24;;;;;;;10.32;9.43;;;7.10;99.90;;;;;;4957543;28;20229;-76
2021/03/07 07:39:52;;;;;;;9.77;8.88;;;7.60;99.90;;;;;;4962322;28;20280;-76
2021/03/07 07:42:23;;;;;;;12.18;9.45;;;8.00;99.90;;;;;;4958246;28;20244;-76
2021/03/07 07:44:50;;;;;;;10.63;9.63;;;8.40;99.90;;;;;;4960898;28;20224;-75
2021/03/07 07:47:18;;;;;;;9.55;8.75;;;8.60;99.90;;;;;;4961234;28;20221;-75
2021/03/07 07:49:46;;;;;;;10.35;9.35;;;8.60;99.90;;;;;;4965166;28;20221;-76
2021/03/07 07:52:38;;;;;;;9.88;8.98;;;8.90;99.90;;;;;;4963090;28;20229;-76
2021/03/07 07:55:07;;;;;;;10.93;9.90;;;9.10;99.90;;;;;;4958796;28;20233;-75
2021/03/07 07:57:59;;;;;;;10.63;9.63;;;9.00;99.90;;;;;;4960499;28;20228;-76
2021/03/07 08:00:47;;;;;;;10.10;9.20;;;8.90;99.90;;;;;;4941553;28;20233;-76
2021/03/07 08:03:35;;;;;;;9.40;8.50;;;9.00;99.90;;;;;;4964390;28;20229;-76
2021/03/07 08:06:02;;;;;;;10.60;9.60;;;9.40;99.90;;;;;;4973083;28;20637;-76
2021/03/07 08:08:34;;;;;;;11.15;10.05;;;9.80;99.90;;;;;;4973576;28;20301;-76
2021/03/07 08:11:02;;;;;;;10.30;9.30;;;10.20;99.90;;;;;;4966248;28;20226;-77
2021/03/07 08:14:00;;;;;;;9.90;9.02;;;10.40;99.90;;;;;;4957330;28;20276;-77
2021/03/07 08:16:39;;;;;;;9.65;8.77;;;10.70;99.90;;;;;;4953101;28;20213;-76
2021/03/07 08:19:07;;;;;;;9.27;8.38;;;10.80;99.90;;;;;;4962790;28;20256;-76
2021/03/07 08:21:58;;;;;;;12.73;9.65;;;10.80;99.90;;;;;;4957961;28;20225;-76
2021/03/07 08:24:26;;;;;;;8.98;8.07;;;11.00;99.90;;;;;;4961828;28;20229;-77
2021/03/07 08:27:01;;;;;;;10.68;8.93;;;10.90;99.90;;;;;;4958932;28;20863;-77
2021/03/07 08:29:44;;;;;;;10.20;9.23;;;10.90;99.90;;;;;;4961956;28;20228;-76
2021/03/07 08:32:27;;;;;;;8.82;7.90;;;10.90;99.90;;;;;;4964707;28;20574;-77
2021/03/07 08:34:55;;;;;;;9.93;9.02;;;10.60;99.90;;;;;;4964533;28;20213;-76
2021/03/07 08:37:22;;;;;;;9.35;8.45;;;10.50;99.90;;;;;;4968692;28;20256;-77
2021/03/07 08:40:22;;;;;;;10.07;9.07;;;10.70;99.90;;;;;;4966936;28;20220;-78
2021/03/07 08:42:49;;;;;;;8.90;7.95;;;10.90;99.90;;;;;;4955807;28;20240;-77
2021/03/07 08:45:20;;;;;;;8.95;8.15;;;11.10;99.90;;;;;;4960551;28;20853;-77
2021/03/07 08:47:58;;;;;;;10.18;9.07;;;11.10;99.90;;;;;;4963289;28;20719;-77
2021/03/07 08:50:26;;;;;;;10.57;9.45;;;11.00;99.90;;;;;;4968548;28;20237;-77
2021/03/07 08:52:53;;;;;;;9.52;8.73;;;11.10;99.90;;;;;;4965541;28;20225;-77
2021/03/07 08:55:20;;;;;;;9.15;8.35;;;11.20;99.90;;;;;;4967618;28;20280;-77
2021/03/07 08:57:48;;;;;;;9.30;8.50;;;11.20;99.90;;;;;;4968274;28;20225;-77
2021/03/07 09:00:25;;;;;;;10.15;8.52;;;11.30;99.90;;;;;;4970817;28;20898;-77
2021/03/07 09:02:53;;;;;;;8.02;7.32;;;11.40;99.90;;;;;;4968491;28;20225;-77
2021/03/07 09:05:30;;;;;;;8.93;8.13;;;11.60;99.90;;;;;;4968402;28;20237;-77
2021/03/07 09:07:59;;;;;;;9.73;8.73;;;11.90;99.90;;;;;;4968287;28;20240;-77
2021/03/07 09:10:35;;;;;;;8.85;6.53;;;12.10;99.90;;;;;;4964996;28;20233;-76
2021/03/07 09:13:09;;;;;;;7.70;6.88;;;12.40;99.90;;;;;;4968520;28;20228;-77
2021/03/07 09:15:37;;;;;;;7.95;7.15;;;12.50;99.90;;;;;;4969279;28;20232;-77
2021/03/07 09:18:06;;;;;;;8.20;7.35;;;12.70;99.90;;;;;;4967610;28;20237;-77
2021/03/07 09:20:44;;;;;;;7.18;6.47;;;12.80;99.40;;;;;;4967486;28;20229;-77
2021/03/07 09:23:31;;;;;;;10.85;7.38;;;12.70;98.10;;;;;;4971978;28;21114;-77
2021/03/07 09:25:59;;;;;;;7.57;6.88;;;12.50;98.10;;;;;;4967480;28;20593;-77
2021/03/07 09:28:34;;;;;;;8.23;7.45;;;12.30;98.60;;;;;;4965775;28;20241;-76
2021/03/07 09:31:02;;;;;;;7.72;7.03;;;12.00;98.40;;;;;;4968521;28;20312;-76
2021/03/07 09:33:30;;;;;;;8.40;7.60;;;12.30;99.10;;;;;;4967358;28;20225;-76
2021/03/07 09:36:05;;;;;;;7.35;6.57;;;12.40;98.20;;;;;;4970592;28;20217;-77
2021/03/07 09:38:43;;;;;;;7.60;6.90;;;12.50;97.80;;;;;;4970461;28;20236;-77
2021/03/07 09:41:10;;;;;;;6.53;5.93;;;12.80;97.80;;;;;;4971665;28;20244;-77
2021/03/07 09:43:38;;;;;;;7.38;6.68;;;13.00;97.50;;;;;;4971126;28;20782;-76
2021/03/07 09:46:05;;;;;;;7.75;7.05;;;13.00;96.90;;;;;;4970260;28;20236;-76
2021/03/07 09:48:34;;;;;;;7.28;6.57;;;12.90;97.50;;;;;;4971609;28;20728;-76
2021/03/07 09:51:03;;;;;;;7.00;6.40;;;13.00;97.10;;;;;;4973318;28;20224;-77
2021/03/07 09:53:31;;;;;;;6.95;6.25;;;13.20;97.80;;;;;;4966001;28;20221;-77
2021/03/07 09:55:58;;;;;;;7.90;7.20;;;13.20;97.10;;;;;;4968316;28;20244;-77
2021/03/07 09:58:35;;;;;;;7.10;6.47;;;13.20;97.30;;;;;;4968369;28;21037;-77
2021/03/07 10:01:04;;;;;;;7.22;6.63;;;13.20;96.90;;;;;;4964484;28;20249;-77
2021/03/07 10:03:34;;;;;;;7.78;7.10;;;13.00;96.80;;;;;;4971082;28;20234;-77
2021/03/07 10:06:05;;;;;;;7.32;6.63;;;12.80;97.40;;;;;;4967351;28;20221;-76
2021/03/07 10:08:33;;;;;;;7.47;6.78;;;12.80;96.90;;;;;;4967896;28;20679;-77
2021/03/07 10:11:26;;;;;;;8.35;6.95;;;13.10;97.00;;;;;;4967499;28;20276;-77
2021/03/07 10:14:03;;;;;;;7.57;6.70;;;13.30;96.60;;;;;;4951177;28;20222;-77
2021/03/07 10:16:31;;;;;;;7.55;6.85;;;13.50;96.40;;;;;;4967243;28;20283;-77
2021/03/07 10:19:10;;;;;;;7.85;6.97;;;13.50;96.10;;;;;;4960685;28;20221;-77
2021/03/07 10:21:37;;;;;;;7.28;6.57;;;13.30;95.90;;;;;;4968477;28;20233;-77
2021/03/07 10:24:09;;;;;;;7.38;6.78;;;13.30;96.10;;;;;;4966616;28;20233;-78
2021/03/07 10:26:36;;;;;;;7.40;6.70;;;13.30;96.40;;;;;;4967553;28;20228;-76
2021/03/07 10:29:22;;;;;;;8.52;6.78;;;13.10;95.70;;;;;;4969795;28;20345;-77
2021/03/07 10:32:03;;;;;;;6.55;5.93;;;12.70;96.00;;;;;;4964066;28;20229;-77
2021/03/07 10:34:36;;;;;;;7.80;7.00;;;12.90;96.40;;;;;;4966649;28;20251;-76
2021/03/07 10:37:03;;;;;;;7.00;6.30;;;12.90;96.60;;;;;;4963846;28;20229;-77
2021/03/07 10:39:30;;;;;;;6.82;6.22;;;13.10;96.40;;;;;;4963752;28;20221;-77
2021/03/07 10:42:11;;;;;;;11.48;7.05;;;13.10;95.90;;;;;;4967623;28;20232;-77
2021/03/07 10:44:40;;;;;;;7.70;6.80;;;13.40;95.90;;;;;;4967953;28;20221;-79
2021/03/07 10:47:17;;;;;;;7.93;6.72;;;13.60;96.10;;;;;;4967942;28;20239;-78
2021/03/07 10:49:47;;;;;;;8.80;7.82;;;13.50;94.80;;;;;;4966092;28;20228;-79
2021/03/07 10:52:14;;;;;;;7.50;6.70;;;13.40;94.90;;;;;;4966515;28;20232;-79
2021/03/07 10:54:41;;;;;;;6.80;6.20;;;13.40;95.20;;;;;;4967321;28;20225;-78
2021/03/07 10:57:09;;;;;;;7.50;6.80;;;13.80;95.30;;;;;;4963347;28;20252;-80
2021/03/07 10:59:35;;;;;;;7.20;6.53;;;13.80;94.90;;;;;;4962333;28;20249;-79
2021/03/07 11:02:05;;;;;;;8.07;6.50;;;14.00;94.90;;;;;;4964820;28;20279;-79
2021/03/07 11:04:31;;;;;;;7.78;7.07;;;14.00;93.60;;;;;;4966164;28;20245;-79
2021/03/07 11:06:59;;;;;;;6.95;6.25;;;13.70;93.80;;;;;;4965481;28;20228;-79
2021/03/07 11:09:27;;;;;;;7.05;6.43;;;13.60;93.70;;;;;;4965337;28;20221;-79
2021/03/07 11:11:53;;;;;;;6.32;5.75;;;13.60;93.80;;;;;;4965305;28;20228;-79
2021/03/07 11:14:20;;;;;;;9.38;6.85;;;13.50;94.50;;;;;;4964135;28;20230;-78
2021/03/07 11:16:46;;;;;;;6.93;6.30;;;13.80;94.10;;;;;;4963318;28;20217;-78
2021/03/07 11:19:13;;;;;;;7.30;6.70;;;13.90;93.70;;;;;;4963688;28;20712;-78
2021/03/07 11:21:39;;;;;;;6.90;6.30;;;14.10;93.10;;;;;;4961343;28;20596;-78
2021/03/07 11:24:08;;;;;;;6.07;5.50;;;14.10;93.10;;;;;;4964422;28;20225;-79
2021/03/07 11:26:34;;;;;;;7.38;6.68;;;13.80;93.30;;;;;;4965624;28;20237;-78
2021/03/07 11:29:02;;;;;;;7.28;6.68;;;13.80;93.70;;;;;;4964402;28;20241;-79
2021/03/07 11:31:28;;;;;;;7.15;6.55;;;13.80;94.40;;;;;;4964920;28;20275;-77
2021/03/07 11:33:55;;;;;;;7.60;6.90;;;14.00;94.50;;;;;;4965636;28;20253;-77
2021/03/07 11:36:21;;;;;;;9.45;8.55;;;14.00;94.50;;;;;;4964621;28;20248;-78
2021/03/07 11:38:48;;;;;;;8.52;7.72;;;13.80;95.00;;;;;;4960799;28;20234;-77
2021/03/07 11:41:15;;;;;;;8.10;7.32;;;13.30;94.70;;;;;;4963946;28;20230;-77
2021/03/07 11:43:42;;;;;;;8.32;7.63;;;13.20;95.70;;;;;;4964347;28;20287;-78
2021/03/07 11:46:08;;;;;;;6.78;6.22;;;13.40;95.70;;;;;;4963761;28;20229;-77
2021/03/07 11:48:35;;;;;;;8.02;7.22;;;13.30;94.90;;;;;;4963886;28;20692;-78
2021/03/07 11:51:02;;;;;;;6.93;6.32;;;13.40;95.20;;;;;;4963849;28;20229;-78
2021/03/07 11:53:28;;;;;;;7.47;6.78;;;13.20;94.80;;;;;;4963608;28;20824;-77
2021/03/07 11:55:55;;;;;;;7.22;6.55;;;13.10;94.70;;;;;;4959633;28;20241;-78
2021/03/07 11:58:22;;;;;;;8.30;7.18;;;13.20;94.90;;;;;;4963866;28;20718;-78
2021/03/07 12:00:49;;;;;;;8.43;7.63;;;13.30;94.80;;;;;;4963116;28;20225;-78
2021/03/07 12:03:15;;;;;;;7.82;7.13;;;13.20;94.60;;;;;;4964199;28;20287;-77
2021/03/07 12:05:42;;;;;;;7.50;6.90;;;13.10;94.50;;;;;;4965611;28;20228;-78
2021/03/07 12:08:09;;;;;;;7.57;6.97;;;13.00;95.60;;;;;;4965400;28;20229;-78
2021/03/07 12:10:35;;;;;;;7.57;6.85;;;13.00;94.80;;;;;;4965463;28;20228;-78
2021/03/07 12:13:02;;;;;;;8.07;7.13;;;13.00;95.20;;;;;;4967410;28;20696;-78
2021/03/07 12:15:29;;;;;;;8.60;7.57;;;12.90;95.10;;;;;;4965395;28;20226;-77
2021/03/07 12:17:56;;;;;;;9.50;8.48;;;12.90;95.00;;;;;;4967785;28;20250;-79
2021/03/07 12:20:23;;;;;;;8.05;7.05;;;12.80;95.40;;;;;;4965806;28;20711;-77
2021/03/07 12:22:49;;;;;;;8.25;7.53;;;12.70;95.40;;;;;;4966147;28;20604;-78
2021/03/07 12:25:16;;;;;;;8.30;7.47;;;13.00;95.10;;;;;;4970191;28;20656;-78
2021/03/07 12:27:43;;;;;;;7.97;7.20;;;13.20;95.40;;;;;;4970650;28;20217;-78
2021/03/07 12:30:11;;;;;;;9.60;8.70;;;13.10;94.90;;;;;;4967346;28;20229;-79
2021/03/07 12:32:39;;;;;;;10.38;8.35;;;12.90;95.30;;;;;;4966773;28;20218;-78
2021/03/07 12:35:06;;;;;;;8.75;7.95;;;12.90;94.70;;;;;;4965762;28;20586;-77
2021/03/07 12:37:33;;;;;;;8.55;7.63;;;13.00;95.10;;;;;;4966809;28;20232;-79
2021/03/07 12:40:00;;;;;;;8.70;7.90;;;13.10;95.10;;;;;;4966007;28;20240;-77
2021/03/07 12:42:26;;;;;;;7.72;6.90;;;13.10;94.70;;;;;;4963594;28;20217;-78
2021/03/07 12:44:53;;;;;;;7.07;6.38;;;13.30;95.10;;;;;;4965499;28;20229;-79
2021/03/07 12:47:20;;;;;;;7.68;6.88;;;13.50;94.10;;;;;;4966603;28;20288;-78
2021/03/07 12:49:48;;;;;;;7.93;6.85;;;13.70;93.00;;;;;;4965773;28;20726;-80
2021/03/07 12:52:14;;;;;;;8.18;6.40;;;13.70;92.90;;;;;;4969642;28;20224;-77
2021/03/07 12:54:41;;;;;;;6.80;5.82;;;13.80;92.90;;;;;;4967115;28;20233;-79
2021/03/07 12:57:08;;;;;;;7.40;6.65;;;13.90;92.90;;;;;;4965111;28;20229;-78
2021/03/07 12:59:35;;;;;;;6.80;6.20;;;14.10;93.30;;;;;;4969581;28;20230;-79
2021/03/07 13:02:02;;;;;;;6.60;6.00;;;14.20;92.40;;;;;;4965858;28;20233;-80
2021/03/07 13:04:29;;;;;;;8.35;5.93;;;14.20;91.40;;;;;;4973173;28;20225;-79